createdAt,value
2022-08-18T00:01:42.220Z,0.00
2022-08-18T00:04:12.491Z,0.00
2022-08-18T00:06:57.420Z,0.00
2022-08-18T00:09:27.799Z,0.00
2022-08-18T00:11:58.521Z,0.00
2022-08-18T00:14:25.392Z,0.00
2022-08-18T00:16:53.901Z,0.00
2022-08-18T00:19:45.456Z,0.00
2022-08-18T00:22:12.449Z,0.00
2022-08-18T00:24:47.776Z,0.00
2022-08-18T00:27:21.833Z,0.00
2022-08-18T00:29:50.556Z,0.00
2022-08-18T00:32:21.120Z,0.00
2022-08-18T00:34:48.010Z,0.00
2022-08-18T00:37:14.999Z,0.00
2022-08-18T00:39:46.093Z,0.00
2022-08-18T00:42:27.477Z,0.00
2022-08-18T00:44:58.405Z,0.00
2022-08-18T00:47:41.300Z,0.00
2022-08-18T00:50:39.107Z,0.00
2022-08-18T00:53:15.269Z,0.00
2022-08-18T00:55:54.107Z,0.00
2022-08-18T00:58:27.937Z,0.00
2022-08-18T01:00:55.085Z,0.00
2022-08-18T01:03:24.972Z,0.00
2022-08-18T01:06:17.485Z,0.00
2022-08-18T01:08:44.586Z,0.00
2022-08-18T01:11:13.775Z,0.00
2022-08-18T01:13:42.844Z,0.00
2022-08-18T01:16:28.471Z,0.00
2022-08-18T01:19:14.548Z,0.00
2022-08-18T01:21:52.231Z,0.00
2022-08-18T01:24:47.274Z,0.00
2022-08-18T01:27:17.969Z,0.00
2022-08-18T01:29:49.302Z,0.00
2022-08-18T01:32:20.870Z,0.00
2022-08-18T01:34:49.701Z,0.00
2022-08-18T01:37:18.828Z,0.00
2022-08-18T01:41:21.715Z,0.00
2022-08-18T01:42:34.274Z,0.00
2022-08-18T01:45:04.440Z,0.00
2022-08-18T01:47:58.050Z,0.00
2022-08-18T01:50:20.323Z,0.00
2022-08-18T01:52:47.917Z,0.00
2022-08-18T01:55:14.953Z,0.00
2022-08-18T01:57:44.942Z,0.00
2022-08-18T02:00:17.706Z,0.00
2022-08-18T02:02:44.986Z,0.00
2022-08-18T02:05:17.775Z,0.00
2022-08-18T02:07:44.763Z,0.00
2022-08-18T02:10:12.627Z,0.00
2022-08-18T02:12:43.967Z,0.00
2022-08-18T02:15:12.006Z,0.00
2022-08-18T02:17:40.557Z,0.00
2022-08-18T02:20:10.009Z,0.00
2022-08-18T02:22:38.629Z,0.00
2022-08-18T02:25:06.812Z,0.00
2022-08-18T02:27:34.251Z,0.00
2022-08-18T02:30:03.295Z,0.00
2022-08-18T02:32:31.441Z,0.00
2022-08-18T02:34:58.373Z,0.00
2022-08-18T02:37:25.411Z,0.00
2022-08-18T02:39:52.265Z,0.00
2022-08-18T02:42:19.563Z,0.00
2022-08-18T02:44:46.402Z,0.00
2022-08-18T02:47:13.421Z,0.00
2022-08-18T02:49:40.322Z,0.00
2022-08-18T02:52:07.391Z,0.00
2022-08-18T02:54:35.196Z,0.00
2022-08-18T02:57:10.700Z,0.00
2022-08-18T02:59:39.262Z,0.00
2022-08-18T03:02:07.667Z,0.00
2022-08-18T03:04:34.810Z,0.00
2022-08-18T03:07:05.935Z,0.00
2022-08-18T03:09:34.631Z,0.00
2022-08-18T03:12:02.106Z,0.00
2022-08-18T03:14:29.485Z,0.00
2022-08-18T03:16:56.951Z,0.00
2022-08-18T03:19:28.952Z,0.00
2022-08-18T03:22:03.013Z,0.00
2022-08-18T03:24:32.483Z,0.00
2022-08-18T03:27:00.297Z,0.00
2022-08-18T03:29:32.008Z,0.00
2022-08-18T03:32:04.149Z,0.00
2022-08-18T03:34:31.607Z,0.00
2022-08-18T03:36:59.355Z,0.00
2022-08-18T03:39:28.065Z,0.00
2022-08-18T03:41:59.646Z,0.00
2022-08-18T03:44:30.905Z,0.00
2022-08-18T03:46:58.378Z,0.00
2022-08-18T03:49:27.287Z,0.00
2022-08-18T03:51:54.593Z,0.00
2022-08-18T03:54:22.209Z,0.00
2022-08-18T03:56:49.691Z,0.00
2022-08-18T03:59:20.033Z,0.00
2022-08-18T04:01:50.107Z,0.00
2022-08-18T04:04:21.488Z,0.00
2022-08-18T04:06:55.578Z,0.00
2022-08-18T04:09:24.712Z,0.00
2022-08-18T04:11:52.502Z,0.00
2022-08-18T04:14:24.844Z,0.00
2022-08-18T04:16:52.397Z,0.00
2022-08-18T04:19:23.050Z,0.00
2022-08-18T04:21:56.770Z,0.00
2022-08-18T04:24:26.132Z,0.00
2022-08-18T04:26:53.721Z,0.00
2022-08-18T04:29:21.826Z,0.00
2022-08-18T04:31:50.418Z,0.00
2022-08-18T04:34:18.476Z,0.00
2022-08-18T04:36:45.578Z,0.00
2022-08-18T04:39:13.622Z,0.00
2022-08-18T04:41:43.443Z,0.00
2022-08-18T04:44:12.125Z,0.00
2022-08-18T04:46:47.875Z,0.00
2022-08-18T04:49:16.779Z,0.00
2022-08-18T04:52:34.249Z,0.00
2022-08-18T04:54:54.908Z,0.00
2022-08-18T04:57:23.002Z,0.00
2022-08-18T04:59:52.254Z,0.00
2022-08-18T05:02:20.507Z,0.00
2022-08-18T05:04:47.758Z,0.00
2022-08-18T05:07:17.777Z,0.00
2022-08-18T05:09:44.981Z,0.00
2022-08-18T05:12:14.655Z,0.00
2022-08-18T05:14:44.606Z,0.00
2022-08-18T05:17:12.854Z,0.00
2022-08-18T05:19:42.295Z,0.00
2022-08-18T05:22:14.082Z,0.00
2022-08-18T05:24:41.810Z,0.00
2022-08-18T05:27:08.694Z,0.00
2022-08-18T05:29:41.917Z,0.00
2022-08-18T05:32:37.231Z,0.00
2022-08-18T05:35:21.163Z,0.00
2022-08-18T05:38:01.503Z,0.00
2022-08-18T05:40:28.784Z,0.00
2022-08-18T05:42:58.745Z,0.00
2022-08-18T05:45:26.189Z,0.00
2022-08-18T05:47:59.941Z,0.00
2022-08-18T05:50:29.644Z,0.00
2022-08-18T05:53:14.040Z,0.00
2022-08-18T05:56:05.965Z,0.00
2022-08-18T05:58:38.868Z,0.00
2022-08-18T06:01:13.222Z,0.00
2022-08-18T06:03:52.795Z,0.00
2022-08-18T06:06:25.493Z,0.00
2022-08-18T06:09:24.079Z,0.00
2022-08-18T06:11:52.997Z,0.00
2022-08-18T06:14:20.215Z,0.00
2022-08-18T06:17:00.938Z,0.00
2022-08-18T06:19:36.641Z,0.00
2022-08-18T06:22:36.652Z,0.00
2022-08-18T06:25:34.399Z,0.00
2022-08-18T06:28:04.478Z,0.00
2022-08-18T06:30:47.168Z,0.00
2022-08-18T06:33:25.580Z,0.00
2022-08-18T06:36:00.675Z,0.00
2022-08-18T06:38:57.295Z,0.00
2022-08-18T06:41:41.996Z,0.00
2022-08-18T06:44:23.686Z,0.00
2022-08-18T06:47:08.166Z,0.00
2022-08-18T06:49:41.804Z,0.00
2022-08-18T06:52:32.064Z,0.00
2022-08-18T06:55:02.276Z,0.00
2022-08-18T06:57:34.563Z,0.00
2022-08-18T07:00:08.154Z,0.00
2022-08-18T07:02:55.463Z,0.00
2022-08-18T07:05:24.357Z,0.00
2022-08-18T07:08:12.834Z,0.00
2022-08-18T07:10:47.641Z,0.00
2022-08-18T07:13:18.166Z,0.00
2022-08-18T07:15:45.896Z,0.00
2022-08-18T07:18:14.770Z,0.00
2022-08-18T07:20:57.351Z,0.00
2022-08-18T07:23:30.070Z,0.00
2022-08-18T07:26:10.715Z,0.00
2022-08-18T07:28:51.987Z,0.00
2022-08-18T07:31:24.934Z,0.00
2022-08-18T07:34:14.003Z,0.00
2022-08-18T07:36:53.249Z,0.00
2022-08-18T07:39:31.736Z,0.00
2022-08-18T07:42:11.265Z,0.00
2022-08-18T07:44:53.681Z,0.00
2022-08-18T07:47:50.527Z,0.00
2022-08-18T07:50:36.199Z,0.00
2022-08-18T07:53:28.167Z,0.10
2022-08-18T07:56:01.593Z,0.10
2022-08-18T07:58:44.396Z,0.10
2022-08-18T08:01:22.523Z,0.10
2022-08-18T08:04:01.304Z,0.10
2022-08-18T08:07:12.835Z,0.10
2022-08-18T08:10:10.295Z,0.10
2022-08-18T08:13:08.463Z,0.10
2022-08-18T08:15:49.579Z,0.20
2022-08-18T08:18:35.523Z,0.20
2022-08-18T08:21:17.684Z,0.10
2022-08-18T08:24:10.601Z,0.10
2022-08-18T08:27:02.127Z,0.10
2022-08-18T08:29:47.509Z,0.20
2022-08-18T08:32:37.079Z,0.20
2022-08-18T08:35:49.933Z,0.17
2022-08-18T08:38:40.178Z,0.20
2022-08-18T08:41:19.970Z,0.20
2022-08-18T08:44:10.535Z,0.20
2022-08-18T08:46:57.918Z,0.20
2022-08-18T08:49:30.939Z,0.25
2022-08-18T08:52:07.402Z,0.20
2022-08-18T08:54:53.728Z,0.20
2022-08-18T08:57:27.065Z,0.25
2022-08-18T08:59:56.827Z,0.25
2022-08-18T09:02:57.138Z,0.30
2022-08-18T09:05:28.046Z,0.30
2022-08-18T09:08:26.084Z,0.25
2022-08-18T09:11:29.692Z,0.28
2022-08-18T09:14:34.073Z,0.20
2022-08-18T09:17:10.135Z,0.20
2022-08-18T09:19:52.606Z,0.20
2022-08-18T09:22:45.733Z,0.20
2022-08-18T09:25:32.862Z,0.20
2022-08-18T09:28:39.776Z,0.20
2022-08-18T09:31:08.516Z,0.20
2022-08-18T09:33:45.338Z,0.20
2022-08-18T09:36:15.303Z,0.20
2022-08-18T09:39:15.520Z,0.10
2022-08-18T09:41:53.388Z,0.10
2022-08-18T09:44:52.516Z,0.20
2022-08-18T09:47:24.359Z,0.10
2022-08-18T09:49:55.413Z,0.10
2022-08-18T09:52:24.307Z,0.10
2022-08-18T09:55:18.037Z,0.10
2022-08-18T09:57:46.665Z,0.10
2022-08-18T10:00:29.812Z,0.10
2022-08-18T10:03:01.187Z,0.10
2022-08-18T10:05:31.081Z,0.10
2022-08-18T10:08:03.781Z,0.10
2022-08-18T10:11:01.202Z,0.10
2022-08-18T10:13:48.982Z,0.10
2022-08-18T10:17:15.281Z,0.10
2022-08-18T10:19:56.742Z,0.20
2022-08-18T10:22:44.276Z,0.10
2022-08-18T10:25:22.465Z,0.20
2022-08-18T10:27:55.038Z,0.10
2022-08-18T10:33:57.818Z,0.20
2022-08-18T10:36:53.094Z,0.20
2022-08-18T10:39:39.554Z,0.28
2022-08-18T10:42:20.137Z,0.20
2022-08-18T10:44:50.984Z,0.20
2022-08-18T10:47:34.040Z,0.20
2022-08-18T10:50:05.100Z,0.20
2022-08-18T10:53:38.918Z,0.20
2022-08-18T10:56:27.387Z,0.20
2022-08-18T10:59:02.545Z,0.20
2022-08-18T11:01:42.878Z,0.10
2022-08-18T11:04:34.790Z,0.20
2022-08-18T11:07:09.137Z,0.10
2022-08-18T11:09:41.503Z,0.17
2022-08-18T11:12:12.564Z,0.20
2022-08-18T11:14:58.450Z,0.20
2022-08-18T11:17:50.502Z,0.20
2022-08-18T11:20:19.252Z,0.20
2022-08-18T11:22:53.163Z,0.15
2022-08-18T11:25:25.039Z,0.20
2022-08-18T11:27:56.322Z,0.20
2022-08-18T11:30:31.057Z,0.20
2022-08-18T11:33:02.687Z,0.20
2022-08-18T11:35:44.227Z,0.20
2022-08-18T11:38:23.251Z,0.20
2022-08-18T11:41:13.898Z,0.13
2022-08-18T11:43:43.013Z,0.20
2022-08-18T11:46:38.605Z,0.20
2022-08-18T11:52:29.530Z,0.20
2022-08-18T11:55:14.383Z,0.20
2022-08-18T11:57:59.721Z,0.20
2022-08-18T12:00:45.732Z,0.20
2022-08-18T12:03:38.161Z,0.20
2022-08-18T12:09:45.536Z,0.20
2022-08-18T12:12:22.410Z,0.13
2022-08-18T12:15:10.479Z,0.10
2022-08-18T12:17:52.444Z,0.10
2022-08-18T12:20:20.409Z,0.10
2022-08-18T12:22:49.240Z,0.10
2022-08-18T12:25:25.329Z,0.10
2022-08-18T12:27:53.832Z,0.10
2022-08-18T12:30:20.740Z,0.10
2022-08-18T12:32:50.527Z,0.10
2022-08-18T12:35:22.644Z,0.10
2022-08-18T12:38:14.011Z,0.10
2022-08-18T12:40:38.073Z,0.10
2022-08-18T12:43:06.066Z,0.10
2022-08-18T12:45:33.751Z,0.10
2022-08-18T12:48:04.398Z,0.10
2022-08-18T12:50:36.156Z,0.10
2022-08-18T12:53:04.722Z,0.10
2022-08-18T12:55:37.719Z,0.10
2022-08-18T12:58:12.045Z,0.10
2022-08-18T13:00:40.797Z,0.10
2022-08-18T13:03:08.046Z,0.10
2022-08-18T13:05:37.173Z,0.10
2022-08-18T13:08:05.830Z,0.10
2022-08-18T13:10:42.774Z,0.10
2022-08-18T13:13:14.977Z,0.10
2022-08-18T13:15:55.465Z,0.10
2022-08-18T13:18:28.892Z,0.10
2022-08-18T13:20:58.480Z,0.10
2022-08-18T13:23:27.523Z,0.10
2022-08-18T13:25:59.514Z,0.10
2022-08-18T13:28:30.242Z,0.10
2022-08-18T13:30:58.310Z,0.10
2022-08-18T13:33:56.258Z,0.10
2022-08-18T13:36:12.346Z,0.10
2022-08-18T13:38:41.517Z,0.10
2022-08-18T13:41:15.948Z,0.10
2022-08-18T13:43:47.878Z,0.10
2022-08-18T13:46:18.547Z,0.10
2022-08-18T13:48:46.925Z,0.10
2022-08-18T13:51:24.222Z,0.10
2022-08-18T13:54:17.420Z,0.10
2022-08-18T13:56:39.814Z,0.20
2022-08-18T13:59:07.297Z,0.20
2022-08-18T14:01:51.674Z,0.20
2022-08-18T14:04:22.409Z,0.20
2022-08-18T14:06:57.349Z,0.17
2022-08-18T14:09:36.348Z,0.10
2022-08-18T14:12:23.717Z,0.20
2022-08-18T14:14:55.627Z,0.10
2022-08-18T14:17:25.254Z,0.20
2022-08-18T14:20:21.565Z,0.10
2022-08-18T14:23:13.111Z,0.10
2022-08-18T14:25:59.872Z,0.13
2022-08-18T14:28:28.901Z,0.10
2022-08-18T14:30:57.782Z,0.10
2022-08-18T14:33:49.390Z,0.13
2022-08-18T14:36:16.580Z,0.20
2022-08-18T14:38:45.036Z,0.20
2022-08-18T14:41:14.798Z,0.10
2022-08-18T14:44:00.422Z,0.10
2022-08-18T14:46:32.596Z,0.13
2022-08-18T14:49:04.044Z,0.10
2022-08-18T14:51:33.491Z,0.10
2022-08-18T14:54:01.986Z,0.10
2022-08-18T14:56:29.531Z,0.10
2022-08-18T14:58:56.787Z,0.10
2022-08-18T15:01:26.565Z,0.20
2022-08-18T15:03:54.476Z,0.20
2022-08-18T15:06:23.111Z,0.20
2022-08-18T15:08:57.045Z,0.20
2022-08-18T15:11:24.804Z,0.20
2022-08-18T15:13:55.073Z,0.20
2022-08-18T15:16:26.918Z,0.20
2022-08-18T15:18:58.593Z,0.13
2022-08-18T15:21:43.876Z,0.20
2022-08-18T15:24:29.397Z,0.10
2022-08-18T15:27:05.827Z,0.10
2022-08-18T15:29:33.574Z,0.10
2022-08-18T15:32:06.162Z,0.10
2022-08-18T15:34:46.809Z,0.10
2022-08-18T15:37:20.262Z,0.10
2022-08-18T15:40:01.150Z,0.10
2022-08-18T15:42:29.747Z,0.20
2022-08-18T15:44:56.701Z,0.10
2022-08-18T15:47:25.132Z,0.10
2022-08-18T15:49:52.408Z,0.10
2022-08-18T15:52:22.636Z,0.10
2022-08-18T15:54:50.527Z,0.13
2022-08-18T15:57:38.552Z,0.10
2022-08-18T16:00:06.729Z,0.10
2022-08-18T16:02:34.526Z,0.10
2022-08-18T16:05:09.220Z,0.10
2022-08-18T16:07:41.428Z,0.10
2022-08-18T16:10:13.471Z,0.10
2022-08-18T16:12:40.987Z,0.10
2022-08-18T16:15:21.162Z,0.10
2022-08-18T16:17:49.946Z,0.10
2022-08-18T16:20:18.796Z,0.10
2022-08-18T16:22:46.866Z,0.10
2022-08-18T16:25:16.465Z,0.10
2022-08-18T16:27:44.228Z,0.10
2022-08-18T16:30:17.906Z,0.10
2022-08-18T16:32:45.291Z,0.10
2022-08-18T16:35:12.404Z,0.10
2022-08-18T16:37:39.371Z,0.10
2022-08-18T16:40:08.530Z,0.10
2022-08-18T16:42:35.788Z,0.10
2022-08-18T16:45:04.750Z,0.10
2022-08-18T16:47:37.605Z,0.10
2022-08-18T16:50:15.156Z,0.10
2022-08-18T16:52:42.377Z,0.10
2022-08-18T16:55:11.588Z,0.10
2022-08-18T16:57:59.858Z,0.10
2022-08-18T17:00:46.394Z,0.10
2022-08-18T17:03:40.333Z,0.03
2022-08-18T17:06:10.845Z,0.03
2022-08-18T17:08:39.186Z,0.00
2022-08-18T17:11:09.567Z,0.10
2022-08-18T17:13:38.877Z,0.00
2022-08-18T17:16:06.604Z,0.10
2022-08-18T17:18:33.838Z,0.00
2022-08-18T17:21:06.304Z,0.10
2022-08-18T17:23:33.733Z,0.00
2022-08-18T17:26:02.675Z,0.00
2022-08-18T17:28:57.020Z,0.00
2022-08-18T17:31:24.933Z,0.00
2022-08-18T17:33:54.828Z,0.00
2022-08-18T17:36:30.795Z,0.00
2022-08-18T17:39:01.203Z,0.00
2022-08-18T17:41:28.446Z,0.00
2022-08-18T17:43:57.300Z,0.00
2022-08-18T17:46:30.135Z,0.00
2022-08-18T17:49:06.276Z,0.00
2022-08-18T17:51:47.032Z,0.00
2022-08-18T17:54:25.396Z,0.00
2022-08-18T17:56:57.618Z,0.00
2022-08-18T17:59:52.001Z,0.00
2022-08-18T18:02:30.699Z,0.00
2022-08-18T18:05:03.822Z,0.00
2022-08-18T18:07:33.994Z,0.00
2022-08-18T18:10:07.287Z,0.00
2022-08-18T18:12:35.982Z,0.00
2022-08-18T18:15:07.867Z,0.00
2022-08-18T18:17:37.874Z,0.00
2022-08-18T18:20:17.010Z,0.00
2022-08-18T18:22:45.186Z,0.00
2022-08-18T18:25:29.207Z,0.00
2022-08-18T18:28:01.543Z,0.00
2022-08-18T18:30:32.793Z,0.00
2022-08-18T18:33:05.482Z,0.00
2022-08-18T18:35:54.426Z,0.00
2022-08-18T18:38:35.259Z,0.00
2022-08-18T18:41:21.951Z,0.00
2022-08-18T18:43:51.314Z,0.00
2022-08-18T18:46:24.263Z,0.00
2022-08-18T18:49:22.991Z,0.00
2022-08-18T18:52:11.448Z,0.00
2022-08-18T18:54:49.743Z,0.00
2022-08-18T18:57:32.145Z,0.00
2022-08-18T19:00:18.351Z,0.00
2022-08-18T19:03:06.106Z,0.00
2022-08-18T19:05:48.031Z,0.00
2022-08-18T19:08:28.364Z,0.00
2022-08-18T19:11:02.571Z,0.00
2022-08-18T19:13:37.047Z,0.00
2022-08-18T19:16:23.679Z,0.00
2022-08-18T19:19:35.736Z,0.00
2022-08-18T19:22:03.121Z,0.00
2022-08-18T19:24:39.254Z,0.00
2022-08-18T19:27:14.555Z,0.00
2022-08-18T19:29:43.814Z,0.00
2022-08-18T19:32:19.883Z,0.00
2022-08-18T19:34:52.736Z,0.00
2022-08-18T19:37:54.439Z,0.00
2022-08-18T19:40:36.687Z,0.00
2022-08-18T19:43:12.081Z,0.00
2022-08-18T19:45:59.293Z,0.00
2022-08-18T19:48:38.194Z,0.00
2022-08-18T19:51:13.418Z,0.00
2022-08-18T19:54:32.952Z,0.00
2022-08-18T19:57:48.098Z,0.00
2022-08-18T20:00:43.572Z,0.00
2022-08-18T20:03:33.351Z,0.00
2022-08-18T20:06:34.595Z,0.00
2022-08-18T20:09:24.502Z,0.00
2022-08-18T20:12:11.502Z,0.00
2022-08-18T20:14:39.833Z,0.00
2022-08-18T20:17:12.853Z,0.00
2022-08-18T20:19:41.707Z,0.00
2022-08-18T20:22:26.730Z,0.00
2022-08-18T20:24:56.998Z,0.00
2022-08-18T20:27:35.428Z,0.00
2022-08-18T20:30:42.089Z,0.00
2022-08-18T20:33:11.776Z,0.00
2022-08-18T20:36:04.142Z,0.00
2022-08-18T20:38:35.779Z,0.00
2022-08-18T20:41:28.370Z,0.00
2022-08-18T20:44:28.681Z,0.00
2022-08-18T20:47:24.127Z,0.00
2022-08-18T20:50:21.702Z,0.00
2022-08-18T20:52:59.111Z,0.00
2022-08-18T20:55:55.777Z,0.00
2022-08-18T20:58:32.051Z,0.00
2022-08-18T21:01:00.239Z,0.00
2022-08-18T21:03:43.893Z,0.00
2022-08-18T21:06:14.362Z,0.00
2022-08-18T21:08:48.329Z,0.00
2022-08-18T21:11:30.850Z,0.00
2022-08-18T21:14:04.098Z,0.00
2022-08-18T21:16:41.371Z,0.00
2022-08-18T21:19:20.428Z,0.00
2022-08-18T21:21:51.743Z,0.00
2022-08-18T21:24:29.590Z,0.00
2022-08-18T21:27:10.450Z,0.00
2022-08-18T21:29:47.568Z,0.00
2022-08-18T21:32:21.005Z,0.00
2022-08-18T21:34:48.388Z,0.00
2022-08-18T21:37:18.134Z,0.00
2022-08-18T21:39:48.256Z,0.00
2022-08-18T21:42:21.740Z,0.00
2022-08-18T21:44:54.842Z,0.00
2022-08-18T21:47:26.318Z,0.00
2022-08-18T21:50:14.727Z,0.00
2022-08-18T21:53:15.100Z,0.00
2022-08-18T21:55:45.331Z,0.00
2022-08-18T21:58:34.545Z,0.00
2022-08-18T22:01:24.146Z,0.00
2022-08-18T22:03:59.219Z,0.00
2022-08-18T22:06:31.643Z,0.00
2022-08-18T22:09:37.471Z,0.00
2022-08-18T22:12:37.766Z,0.00
2022-08-18T22:15:18.777Z,0.00
2022-08-18T22:18:05.353Z,0.00
2022-08-18T22:20:40.684Z,0.00
2022-08-18T22:23:29.061Z,0.00
2022-08-18T22:26:05.571Z,0.00
2022-08-18T22:28:33.489Z,0.00
2022-08-18T22:31:00.436Z,0.00
2022-08-18T22:33:28.274Z,0.00
2022-08-18T22:35:56.369Z,0.00
2022-08-18T22:38:31.976Z,0.00
2022-08-18T22:40:59.793Z,0.00
2022-08-18T22:43:27.191Z,0.00
2022-08-18T22:45:54.185Z,0.00
2022-08-18T22:48:21.023Z,0.00
2022-08-18T22:50:47.918Z,0.00
2022-08-18T22:53:15.558Z,0.00
2022-08-18T22:55:42.573Z,0.00
2022-08-18T22:58:09.544Z,0.00
2022-08-18T23:00:38.759Z,0.00
2022-08-18T23:03:07.637Z,0.00
2022-08-18T23:05:34.507Z,0.00
2022-08-18T23:08:02.606Z,0.00
2022-08-18T23:10:29.463Z,0.00
2022-08-18T23:12:58.830Z,0.00
2022-08-18T23:15:47.583Z,0.00
2022-08-18T23:18:19.140Z,0.00
2022-08-18T23:20:51.034Z,0.00
2022-08-18T23:23:20.922Z,0.00
2022-08-18T23:25:50.411Z,0.00
2022-08-18T23:28:21.002Z,0.00
2022-08-18T23:30:50.784Z,0.00
2022-08-18T23:33:19.495Z,0.00
2022-08-18T23:35:48.139Z,0.00
2022-08-18T23:38:17.383Z,0.00
2022-08-18T23:40:48.338Z,0.00
2022-08-18T23:43:16.037Z,0.00
2022-08-18T23:45:47.657Z,0.00
2022-08-18T23:48:15.099Z,0.00
2022-08-18T23:50:44.316Z,0.00
2022-08-18T23:53:12.378Z,0.00
2022-08-18T23:55:39.246Z,0.00
2022-08-18T23:58:06.115Z,0.00
